createdAt,value
2022-11-10T00:00:48.098Z,66.68
2022-11-10T00:03:35.854Z,57.28
2022-11-10T00:06:21.855Z,51.05
2022-11-10T00:09:07.972Z,48.85
2022-11-10T00:11:54.051Z,50.78
2022-11-10T00:14:58.249Z,50.08
2022-11-10T00:17:45.118Z,54.10
2022-11-10T00:20:31.122Z,44.95
2022-11-10T00:23:17.286Z,54.03
2022-11-10T00:26:03.214Z,47.80
2022-11-10T00:28:48.956Z,48.42
2022-11-10T00:31:37.066Z,64.82
2022-11-10T00:34:22.975Z,45.70
2022-11-10T00:37:08.813Z,47.28
2022-11-10T00:39:54.940Z,50.13
2022-11-10T00:42:41.105Z,57.72
2022-11-10T00:45:26.921Z,54.30
2022-11-10T00:48:13.025Z,58.17
2022-11-10T00:50:59.374Z,56.63
2022-11-10T00:53:45.066Z,54.10
2022-11-10T00:56:31.096Z,49.80
2022-11-10T00:59:17.262Z,47.22
2022-11-10T01:02:03.335Z,45.08
2022-11-10T01:04:49.192Z,49.80
2022-11-10T01:07:34.775Z,59.47
2022-11-10T01:10:20.782Z,54.50
2022-11-10T01:13:06.824Z,50.47
2022-11-10T01:15:52.356Z,60.30
2022-11-10T01:18:39.493Z,51.58
2022-11-10T01:21:26.508Z,57.63
2022-11-10T01:24:12.393Z,48.20
2022-11-10T01:26:58.365Z,42.25
2022-11-10T01:29:44.500Z,40.95
2022-11-10T01:32:30.517Z,40.83
2022-11-10T01:35:16.051Z,45.85
2022-11-10T01:38:01.996Z,51.30
2022-11-10T01:40:48.071Z,57.65
2022-11-10T01:43:34.256Z,51.50
2022-11-10T01:46:20.350Z,50.08
2022-11-10T01:49:06.654Z,45.67
2022-11-10T01:51:56.703Z,47.35
2022-11-10T01:54:48.946Z,50.70
2022-11-10T01:57:36.712Z,56.38
2022-11-10T02:00:23.544Z,52.45
2022-11-10T02:03:29.404Z,52.55
2022-11-10T02:06:18.188Z,38.47
2022-11-10T02:09:04.757Z,46.05
2022-11-10T02:11:55.538Z,42.70
2022-11-10T02:14:43.106Z,42.85
2022-11-10T02:17:29.090Z,55.40
2022-11-10T02:20:20.081Z,52.53
2022-11-10T02:23:30.659Z,43.00
2022-11-10T02:26:25.658Z,39.22
2022-11-10T02:29:11.338Z,42.88
2022-11-10T02:31:57.519Z,47.70
2022-11-10T02:34:43.262Z,47.53
2022-11-10T02:37:29.073Z,51.00
2022-11-10T02:40:14.976Z,45.83
2022-11-10T02:43:01.676Z,52.45
2022-11-10T02:45:47.785Z,50.42
2022-11-10T02:48:33.946Z,50.13
2022-11-10T02:51:19.611Z,64.60
2022-11-10T02:54:06.348Z,58.78
2022-11-10T02:56:51.949Z,64.63
2022-11-10T02:59:37.894Z,61.90
2022-11-10T03:02:26.281Z,63.30
2022-11-10T03:05:14.331Z,67.03
2022-11-10T03:08:02.700Z,78.40
2022-11-10T03:10:48.586Z,71.07
2022-11-10T03:13:51.696Z,71.30
2022-11-10T03:16:40.210Z,72.15
2022-11-10T03:19:26.225Z,69.90
2022-11-10T03:22:11.865Z,65.10
2022-11-10T03:24:57.597Z,58.88
2022-11-10T03:27:43.073Z,77.18
2022-11-10T03:30:29.321Z,60.17
2022-11-10T03:33:15.272Z,63.63
2022-11-10T03:36:01.351Z,55.13
2022-11-10T03:38:46.980Z,64.47
2022-11-10T03:41:32.791Z,60.10
2022-11-10T03:44:18.638Z,55.05
2022-11-10T03:47:04.563Z,57.08
2022-11-10T03:49:50.655Z,54.58
2022-11-10T03:52:40.391Z,68.55
2022-11-10T03:55:25.940Z,67.65
2022-11-10T03:58:11.710Z,65.28
2022-11-10T04:00:57.569Z,54.65
2022-11-10T04:03:47.487Z,55.53
2022-11-10T04:06:55.134Z,52.08
2022-11-10T04:09:41.096Z,60.33
2022-11-10T04:12:45.323Z,48.78
2022-11-10T04:15:42.831Z,50.30
2022-11-10T04:18:29.911Z,42.67
2022-11-10T04:21:16.172Z,49.83
2022-11-10T04:24:02.023Z,42.13
2022-11-10T04:26:48.992Z,47.10
2022-11-10T04:29:35.083Z,39.70
2022-11-10T04:32:20.596Z,43.88
2022-11-10T04:35:06.404Z,42.78
2022-11-10T04:37:52.275Z,47.95
2022-11-10T04:40:38.310Z,41.70
2022-11-10T04:43:24.656Z,36.42
2022-11-10T04:46:38.910Z,40.95
2022-11-10T04:49:24.814Z,36.83
2022-11-10T04:52:10.851Z,33.30
2022-11-10T04:54:56.904Z,33.47
2022-11-10T04:57:43.383Z,39.72
2022-11-10T05:00:29.494Z,39.72
2022-11-10T05:03:15.923Z,36.20
2022-11-10T05:06:01.953Z,36.88
2022-11-10T05:08:48.594Z,39.35
2022-11-10T05:11:34.396Z,38.58
2022-11-10T05:14:19.933Z,35.88
2022-11-10T05:17:06.057Z,36.47
2022-11-10T05:19:51.845Z,35.45
2022-11-10T05:22:37.722Z,37.83
2022-11-10T05:25:23.311Z,35.08
2022-11-10T05:28:12.385Z,39.92
2022-11-10T05:30:58.228Z,44.00
2022-11-10T05:33:44.119Z,45.33
2022-11-10T05:36:30.308Z,46.65
2022-11-10T05:39:15.955Z,53.28
2022-11-10T05:42:02.258Z,56.05
2022-11-10T05:44:47.773Z,49.60
2022-11-10T05:47:36.015Z,52.10
2022-11-10T05:50:23.548Z,53.40
2022-11-10T05:53:09.212Z,56.03
2022-11-10T05:55:55.252Z,52.53
2022-11-10T05:58:40.909Z,54.45
2022-11-10T06:01:26.910Z,53.13
2022-11-10T06:04:12.985Z,62.50
2022-11-10T06:06:58.994Z,60.45
2022-11-10T06:09:45.698Z,59.35
2022-11-10T06:12:31.555Z,60.22
2022-11-10T06:15:17.824Z,57.13
2022-11-10T06:18:03.905Z,57.92
2022-11-10T06:20:49.805Z,55.10
2022-11-10T06:23:35.495Z,54.30
2022-11-10T06:26:21.044Z,54.63
2022-11-10T06:29:06.635Z,56.42
2022-11-10T06:31:53.174Z,55.88
2022-11-10T06:34:39.273Z,58.95
2022-11-10T06:37:25.058Z,54.92
2022-11-10T06:40:15.259Z,57.00
2022-11-10T06:43:01.869Z,54.92
2022-11-10T06:45:47.746Z,54.92
2022-11-10T06:48:33.695Z,58.42
2022-11-10T06:51:19.780Z,55.05
2022-11-10T06:54:06.104Z,54.15
2022-11-10T06:56:51.922Z,50.38
2022-11-10T06:59:37.527Z,52.88
2022-11-10T07:02:23.349Z,53.50
2022-11-10T07:05:09.127Z,53.85
2022-11-10T07:07:55.806Z,46.53
2022-11-10T07:10:53.634Z,43.10
2022-11-10T07:13:40.160Z,37.97
2022-11-10T07:16:26.074Z,40.88
2022-11-10T07:19:12.256Z,38.72
2022-11-10T07:21:58.579Z,36.30
2022-11-10T07:24:44.214Z,34.65
2022-11-10T07:27:30.317Z,35.35
2022-11-10T07:30:16.175Z,36.40
2022-11-10T07:33:15.265Z,43.92
2022-11-10T07:36:04.311Z,40.00
2022-11-10T07:38:49.960Z,33.05
2022-11-10T07:41:35.589Z,35.63
2022-11-10T07:44:21.077Z,35.20
2022-11-10T07:47:07.453Z,35.33
2022-11-10T07:49:53.318Z,37.75
2022-11-10T07:52:39.240Z,42.85
2022-11-10T07:55:24.954Z,31.40
2022-11-10T07:58:15.846Z,34.20
2022-11-10T08:03:48.050Z,38.47
2022-11-10T08:06:36.244Z,34.05
2022-11-10T08:09:22.351Z,29.15
2022-11-10T08:12:08.557Z,34.05
2022-11-10T08:14:54.330Z,30.95
2022-11-10T08:17:39.859Z,32.20
2022-11-10T08:20:25.790Z,36.35
2022-11-10T08:23:12.346Z,32.58
2022-11-10T08:26:01.733Z,32.58
2022-11-10T08:28:50.867Z,30.80
2022-11-10T08:31:38.399Z,34.78
2022-11-10T08:34:24.278Z,30.25
2022-11-10T08:37:09.990Z,37.08
2022-11-10T08:39:55.556Z,33.22
2022-11-10T08:42:41.432Z,36.17
2022-11-10T08:45:28.286Z,45.65
2022-11-10T08:48:18.359Z,37.53
2022-11-10T08:51:04.356Z,35.50
2022-11-10T08:53:50.242Z,40.10
2022-11-10T08:56:36.136Z,35.00
2022-11-10T08:59:22.218Z,38.70
2022-11-10T09:02:10.484Z,36.72
2022-11-10T09:04:56.401Z,35.00
2022-11-10T09:07:49.947Z,39.33
2022-11-10T09:10:44.403Z,39.60
2022-11-10T09:13:31.255Z,33.25
2022-11-10T09:16:17.643Z,36.50
2022-11-10T09:19:03.776Z,35.45
2022-11-10T09:21:49.754Z,39.30
2022-11-10T09:24:35.501Z,35.70
2022-11-10T09:27:21.316Z,34.13
2022-11-10T09:30:10.602Z,33.25
2022-11-10T09:33:01.347Z,34.28
2022-11-10T09:35:47.000Z,35.20
2022-11-10T09:38:34.162Z,29.17
2022-11-10T09:41:20.210Z,30.85
2022-11-10T09:44:55.629Z,29.90
2022-11-10T09:47:57.952Z,32.38
2022-11-10T09:50:54.242Z,35.28
2022-11-10T09:54:02.276Z,33.50
2022-11-10T09:56:48.023Z,30.48
2022-11-10T09:59:35.462Z,32.53
2022-11-10T10:02:33.615Z,33.80
2022-11-10T10:05:46.672Z,35.53
2022-11-10T10:09:28.281Z,35.53
2022-11-10T10:12:59.339Z,36.00
2022-11-10T10:16:10.898Z,35.38
2022-11-10T10:19:54.172Z,29.60
2022-11-10T10:22:49.183Z,30.60
2022-11-10T10:25:38.838Z,34.70
2022-11-10T10:28:37.029Z,32.53
2022-11-10T10:31:40.788Z,34.88
2022-11-10T10:34:34.617Z,31.10
2022-11-10T10:37:39.654Z,33.92
2022-11-10T10:40:25.629Z,33.53
2022-11-10T10:43:12.586Z,31.08
2022-11-10T10:46:13.366Z,35.47
2022-11-10T10:49:29.944Z,36.63
2022-11-10T10:52:20.389Z,30.98
2022-11-10T10:55:08.483Z,30.65
2022-11-10T10:58:01.408Z,32.55
2022-11-10T11:01:04.739Z,26.95
2022-11-10T11:03:53.033Z,26.88
2022-11-10T11:06:39.233Z,26.95
2022-11-10T11:09:28.660Z,27.13
2022-11-10T11:12:22.734Z,23.80
2022-11-10T11:15:26.631Z,26.75
2022-11-10T11:18:18.759Z,26.40
2022-11-10T11:21:25.852Z,30.80
2022-11-10T11:24:46.810Z,24.63
2022-11-10T11:31:07.026Z,32.42
2022-11-10T11:34:03.544Z,32.28
2022-11-10T11:36:58.657Z,36.78
2022-11-10T11:40:07.580Z,34.80
2022-11-10T11:43:32.681Z,29.58
2022-11-10T11:46:30.387Z,31.52
2022-11-10T11:49:53.801Z,29.40
2022-11-10T11:53:18.791Z,27.20
2022-11-10T11:56:26.043Z,34.20
2022-11-10T11:59:30.510Z,31.13
2022-11-10T12:02:55.192Z,29.85
2022-11-10T12:06:09.652Z,31.58
2022-11-10T12:09:42.483Z,35.70
2022-11-10T12:12:54.037Z,32.10
2022-11-10T12:16:15.163Z,31.50
2022-11-10T12:19:39.849Z,29.98
2022-11-10T12:22:48.353Z,31.40
2022-11-10T12:26:16.800Z,27.15
2022-11-10T12:29:58.538Z,28.85
2022-11-10T12:33:01.765Z,35.30
2022-11-10T12:35:49.030Z,34.47
2022-11-10T12:39:23.228Z,33.63
2022-11-10T12:42:18.755Z,32.88
2022-11-10T12:45:20.805Z,34.25
2022-11-10T12:48:09.683Z,33.95
2022-11-10T12:51:20.212Z,32.00
2022-11-10T12:54:16.246Z,27.60
2022-11-10T12:57:22.634Z,25.05
2022-11-10T13:00:41.839Z,30.45
2022-11-10T13:03:32.578Z,26.45
2022-11-10T13:06:37.451Z,28.42
2022-11-10T13:09:30.154Z,25.08
2022-11-10T13:12:23.125Z,28.42
2022-11-10T13:15:46.869Z,28.95
2022-11-10T13:18:32.844Z,30.08
2022-11-10T13:21:39.036Z,29.92
2022-11-10T13:24:33.721Z,27.73
2022-11-10T13:27:50.810Z,31.85
2022-11-10T13:30:48.861Z,26.40
2022-11-10T13:33:38.763Z,25.25
2022-11-10T13:36:54.535Z,26.25
2022-11-10T13:39:40.304Z,23.35
2022-11-10T13:42:26.356Z,23.13
2022-11-10T13:45:40.142Z,25.33
2022-11-10T13:48:41.948Z,27.52
2022-11-10T13:52:18.451Z,24.38
2022-11-10T13:55:40.586Z,28.23
2022-11-10T13:58:33.110Z,21.50
2022-11-10T14:01:18.939Z,23.17
2022-11-10T14:04:05.243Z,27.92
2022-11-10T14:06:55.992Z,22.75
2022-11-10T14:09:50.354Z,26.35
2022-11-10T14:13:06.424Z,20.35
2022-11-10T14:15:54.435Z,21.13
2022-11-10T14:18:46.213Z,22.67
2022-11-10T14:22:28.766Z,20.92
2022-11-10T14:25:36.928Z,19.88
2022-11-10T14:28:35.216Z,22.75
2022-11-10T14:31:26.299Z,19.90
2022-11-10T14:37:04.584Z,21.23
2022-11-10T14:40:01.835Z,25.48
2022-11-10T14:42:48.151Z,19.27
2022-11-10T14:45:33.762Z,26.30
2022-11-10T14:48:26.589Z,23.30
2022-11-10T14:51:17.074Z,23.52
2022-11-10T14:54:02.829Z,21.73
2022-11-10T14:56:49.077Z,18.95
2022-11-10T14:59:37.543Z,21.15
2022-11-10T15:02:23.652Z,19.20
2022-11-10T15:05:15.440Z,27.75
2022-11-10T15:08:03.621Z,20.15
2022-11-10T15:10:53.283Z,18.52
2022-11-10T15:13:39.988Z,24.88
2022-11-10T15:16:39.870Z,19.10
2022-11-10T15:19:32.848Z,21.70
2022-11-10T15:22:36.924Z,19.98
2022-11-10T15:25:26.093Z,20.05
2022-11-10T15:28:36.835Z,21.95
2022-11-10T15:31:30.937Z,23.70
2022-11-10T15:34:50.213Z,23.00
2022-11-10T15:37:36.193Z,22.75
2022-11-10T15:40:43.926Z,24.55
2022-11-10T15:43:30.017Z,23.05
2022-11-10T15:46:21.158Z,25.98
2022-11-10T15:49:34.816Z,28.80
2022-11-10T15:52:24.253Z,21.45
2022-11-10T15:55:24.207Z,22.02
2022-11-10T15:58:20.038Z,26.58
2022-11-10T16:01:06.785Z,24.30
2022-11-10T16:03:52.729Z,24.70
2022-11-10T16:06:39.880Z,25.90
2022-11-10T16:09:25.783Z,24.67
2022-11-10T16:12:22.405Z,19.55
2022-11-10T16:15:18.418Z,21.38
2022-11-10T16:18:04.532Z,20.20
2022-11-10T16:20:51.990Z,21.20
2022-11-10T16:23:38.085Z,25.08
2022-11-10T16:26:26.280Z,25.80
2022-11-10T16:29:14.026Z,23.75
2022-11-10T16:31:59.723Z,21.95
2022-11-10T16:34:45.480Z,24.73
2022-11-10T16:37:34.778Z,23.25
2022-11-10T16:40:24.756Z,20.45
2022-11-10T16:43:16.825Z,22.10
2022-11-10T16:46:13.743Z,21.52
2022-11-10T16:49:03.767Z,26.35
2022-11-10T16:51:50.027Z,24.23
2022-11-10T16:54:36.319Z,23.27
2022-11-10T16:57:22.000Z,26.55
2022-11-10T17:00:09.701Z,25.88
2022-11-10T17:03:20.964Z,28.67
2022-11-10T17:06:06.978Z,26.98
2022-11-10T17:08:55.303Z,19.23
2022-11-10T17:11:41.108Z,20.50
2022-11-10T17:14:27.142Z,33.03
2022-11-10T17:17:19.466Z,26.77
2022-11-10T17:20:07.360Z,21.02
2022-11-10T17:22:53.698Z,22.15
2022-11-10T17:25:40.237Z,20.58
2022-11-10T17:28:25.833Z,23.05
2022-11-10T17:31:13.901Z,23.75
2022-11-10T17:34:00.011Z,19.25
2022-11-10T17:36:45.680Z,25.88
2022-11-10T17:39:33.258Z,26.27
2022-11-10T17:42:18.954Z,25.25
2022-11-10T17:45:05.186Z,23.30
2022-11-10T17:47:51.401Z,20.38
2022-11-10T17:50:40.278Z,20.23
2022-11-10T17:53:30.173Z,22.27
2022-11-10T17:56:15.906Z,19.05
2022-11-10T17:59:01.927Z,20.67
2022-11-10T18:01:47.601Z,24.90
2022-11-10T18:04:33.397Z,19.75
2022-11-10T18:07:19.606Z,25.30
2022-11-10T18:10:07.738Z,18.42
2022-11-10T18:12:53.862Z,26.30
2022-11-10T18:15:45.114Z,24.52
2022-11-10T18:18:30.943Z,26.92
2022-11-10T18:21:17.067Z,33.47
2022-11-10T18:24:02.761Z,28.58
2022-11-10T18:26:50.986Z,34.45
2022-11-10T18:29:36.976Z,25.98
2022-11-10T18:32:23.431Z,33.60
2022-11-10T18:35:09.269Z,29.58
2022-11-10T18:37:55.085Z,25.90
2022-11-10T18:40:41.027Z,22.80
2022-11-10T18:43:26.841Z,24.80
2022-11-10T18:46:12.683Z,22.08
2022-11-10T18:48:58.894Z,22.67
2022-11-10T18:51:45.043Z,19.75
2022-11-10T18:54:31.222Z,22.05
2022-11-10T18:57:17.106Z,22.17
2022-11-10T19:00:05.056Z,23.70
2022-11-10T19:02:50.829Z,26.58
2022-11-10T19:05:38.728Z,28.65
2022-11-10T19:08:27.218Z,29.65
2022-11-10T19:11:16.862Z,28.95
2022-11-10T19:14:02.959Z,26.53
2022-11-10T19:16:49.123Z,20.67
2022-11-10T19:19:34.860Z,22.48
2022-11-10T19:22:20.874Z,25.42
2022-11-10T19:25:08.937Z,23.23
2022-11-10T19:27:56.545Z,23.05
2022-11-10T19:30:42.451Z,19.00
2022-11-10T19:33:31.150Z,18.48
2022-11-10T19:36:21.670Z,21.88
2022-11-10T19:39:07.740Z,20.25
2022-11-10T19:41:54.137Z,24.63
2022-11-10T19:44:40.164Z,17.52
2022-11-10T19:47:26.151Z,15.10
2022-11-10T19:50:12.010Z,18.17
2022-11-10T19:52:57.908Z,17.98
2022-11-10T19:55:43.658Z,19.50
2022-11-10T19:58:30.578Z,18.70
2022-11-10T20:01:18.681Z,19.30
2022-11-10T20:04:05.757Z,19.67
2022-11-10T20:07:11.946Z,22.48
2022-11-10T20:10:00.415Z,19.42
2022-11-10T20:12:46.378Z,22.15
2022-11-10T20:15:32.054Z,26.23
2022-11-10T20:18:18.201Z,23.83
2022-11-10T20:21:15.854Z,20.88
2022-11-10T20:24:02.209Z,21.73
2022-11-10T20:26:50.359Z,25.90
2022-11-10T20:29:36.594Z,21.40
2022-11-10T20:32:22.277Z,22.38
2022-11-10T20:35:08.625Z,23.48
2022-11-10T20:37:54.665Z,20.10
2022-11-10T20:40:45.003Z,24.52
2022-11-10T20:43:35.714Z,22.33
2022-11-10T20:46:48.246Z,23.55
2022-11-10T20:49:29.386Z,16.33
2022-11-10T20:52:15.158Z,22.95
2022-11-10T20:55:05.608Z,23.65
2022-11-10T20:57:52.175Z,17.60
2022-11-10T21:00:37.924Z,22.02
2022-11-10T21:03:24.281Z,16.15
2022-11-10T21:06:10.758Z,21.80
2022-11-10T21:08:57.483Z,16.73
2022-11-10T21:12:02.148Z,22.88
2022-11-10T21:14:48.415Z,22.55
2022-11-10T21:17:34.253Z,21.83
2022-11-10T21:20:19.983Z,21.77
2022-11-10T21:23:06.148Z,18.75
2022-11-10T21:26:00.432Z,19.08
2022-11-10T21:28:46.343Z,21.02
2022-11-10T21:31:32.367Z,20.30
2022-11-10T21:34:18.561Z,19.05
2022-11-10T21:37:04.322Z,20.65
2022-11-10T21:39:50.071Z,20.08
2022-11-10T21:42:35.960Z,20.85
2022-11-10T21:45:22.365Z,24.85
2022-11-10T21:48:09.211Z,21.73
2022-11-10T21:51:04.207Z,19.83
2022-11-10T21:53:50.566Z,17.60
2022-11-10T21:56:36.440Z,19.67
2022-11-10T21:59:23.023Z,25.48
2022-11-10T22:02:10.708Z,19.63
2022-11-10T22:04:56.459Z,18.38
2022-11-10T22:07:42.597Z,21.10
2022-11-10T22:10:47.325Z,18.27
2022-11-10T22:13:52.075Z,21.75
2022-11-10T22:17:09.868Z,21.40
2022-11-10T22:19:55.364Z,19.83
2022-11-10T22:22:41.570Z,27.05
2022-11-10T22:25:27.400Z,27.80
2022-11-10T22:28:12.931Z,30.35
2022-11-10T22:30:58.517Z,26.83
2022-11-10T22:33:44.495Z,26.98
2022-11-10T22:36:30.672Z,26.63
2022-11-10T22:39:19.120Z,25.27
2022-11-10T22:42:23.720Z,31.23
2022-11-10T22:45:09.794Z,24.88
2022-11-10T22:48:15.155Z,22.25
2022-11-10T22:51:01.440Z,23.48
2022-11-10T22:53:47.123Z,19.00
2022-11-10T22:56:34.208Z,22.52
2022-11-10T22:59:20.338Z,21.25
2022-11-10T23:02:06.674Z,25.67
2022-11-10T23:04:52.631Z,22.80
2022-11-10T23:07:38.919Z,18.73
2022-11-10T23:10:25.030Z,20.77
2022-11-10T23:13:11.888Z,21.88
2022-11-10T23:16:06.735Z,22.30
2022-11-10T23:18:54.608Z,21.05
2022-11-10T23:21:40.365Z,24.98
2022-11-10T23:24:26.549Z,29.38
2022-11-10T23:27:12.495Z,26.70
2022-11-10T23:29:58.465Z,19.08
2022-11-10T23:32:44.300Z,19.48
2022-11-10T23:35:30.168Z,23.88
2022-11-10T23:38:16.499Z,21.75
2022-11-10T23:41:05.750Z,20.75
2022-11-10T23:43:52.087Z,22.20
2022-11-10T23:46:38.220Z,16.73
2022-11-10T23:49:24.213Z,17.67
2022-11-10T23:52:09.744Z,19.25
2022-11-10T23:54:55.488Z,25.75
2022-11-10T23:57:41.624Z,20.40
